Time;durP1;ratioP1;P1;durP2;ratioP2;P2;SDS_P1;SDS_P2;PMS_P1;PMS_P2;Temp;Humidity;BMP_temperature;BMP_pressure;BME280_temperature;BME280_humidity;BME280_pressure;Samples;Min_cycle;Max_cycle;Signal;HPM_P1;HPM_P2
2021/10/14 00:01:00;;;;;;;3.72;1.48;;;;;;;10.02;100.00;101401.59;5259246;28;20051;-80
2021/10/14 00:03:31;;;;;;;5.13;1.50;;;;;;;10.01;100.00;101404.22;5249443;28;20044;-80
2021/10/14 00:06:01;;;;;;;4.32;1.67;;;;;;;10.11;100.00;101401.41;5250298;28;20025;-79
2021/10/14 00:08:31;;;;;;;3.78;1.50;;;;;;;10.20;100.00;101406.44;5252869;28;20683;-79
2021/10/14 00:11:02;;;;;;;3.72;1.40;;;;;;;10.18;100.00;101408.22;5250374;28;20029;-79
2021/10/14 00:13:33;;;;;;;3.38;1.70;;;;;;;10.13;100.00;101404.00;5249548;28;20036;-79
2021/10/14 00:16:03;;;;;;;4.65;1.70;;;;;;;10.21;100.00;101399.47;5249680;28;20039;-79
2021/10/14 00:18:33;;;;;;;2.97;1.90;;;;;;;10.20;100.00;101405.59;5250189;28;20024;-80
2021/10/14 00:21:04;;;;;;;2.58;1.48;;;;;;;10.08;100.00;101400.63;5248045;28;20034;-80
2021/10/14 00:23:34;;;;;;;4.20;1.83;;;;;;;10.12;100.00;101391.81;5249835;28;20028;-80
2021/10/14 00:26:05;;;;;;;4.80;1.77;;;;;;;10.06;100.00;101391.94;5254826;28;20032;-80
2021/10/14 00:28:35;;;;;;;5.82;1.80;;;;;;;10.15;100.00;101391.78;5249952;28;20032;-80
2021/10/14 00:31:05;;;;;;;4.95;2.15;;;;;;;10.06;100.00;101392.84;5250028;28;20052;-79
2021/10/14 00:33:35;;;;;;;5.05;1.98;;;;;;;9.97;100.00;101382.53;5248823;28;20107;-80
2021/10/14 00:36:06;;;;;;;4.57;2.22;;;;;;;10.04;100.00;101389.41;5252278;28;20029;-80
2021/10/14 00:38:36;;;;;;;4.65;2.10;;;;;;;10.00;100.00;101382.44;5256502;28;20055;-80
2021/10/14 00:41:06;;;;;;;4.13;2.03;;;;;;;10.12;100.00;101378.75;5252245;28;20158;-81
2021/10/14 00:43:37;;;;;;;4.22;2.20;;;;;;;10.02;100.00;101366.81;5252691;28;20111;-81
2021/10/14 00:46:17;;;;;;;4.68;1.83;;;;;;;9.96;100.00;101365.13;5250708;28;20024;-81
2021/10/14 00:48:48;;;;;;;2.75;1.70;;;;;;;10.07;100.00;101364.94;5248054;28;20044;-81
2021/10/14 00:51:18;;;;;;;3.42;1.75;;;;;;;10.12;100.00;101363.97;5246961;28;20029;-81
2021/10/14 00:53:50;;;;;;;3.50;1.65;;;;;;;10.08;100.00;101358.81;5241777;28;20020;-81
2021/10/14 00:56:20;;;;;;;4.28;2.10;;;;;;;10.13;100.00;101362.22;5251266;28;20056;-81
2021/10/14 00:58:50;;;;;;;4.35;1.40;;;;;;;10.15;100.00;101361.28;5252115;28;20048;-80
2021/10/14 01:01:21;;;;;;;4.07;1.48;;;;;;;10.06;100.00;101360.63;5250935;28;20062;-80
2021/10/14 01:03:51;;;;;;;2.38;1.27;;;;;;;10.04;100.00;101362.41;5250129;28;20167;-81
2021/10/14 01:06:21;;;;;;;3.03;1.30;;;;;;;10.15;100.00;101350.00;5251267;28;20040;-81
2021/10/14 01:08:52;;;;;;;2.10;1.40;;;;;;;10.10;100.00;101346.59;5251599;28;20036;-80
2021/10/14 01:11:23;;;;;;;3.08;1.50;;;;;;;10.23;100.00;101348.06;5248276;28;20074;-80
2021/10/14 01:13:54;;;;;;;2.20;1.40;;;;;;;10.23;100.00;101345.44;5248263;28;20028;-80
2021/10/14 01:16:24;;;;;;;2.22;1.20;;;;;;;10.15;100.00;101335.16;5249466;28;20027;-81
2021/10/14 01:18:54;;;;;;;2.05;1.20;;;;;;;10.10;100.00;101343.97;5248976;28;20056;-80
2021/10/14 01:21:24;;;;;;;2.05;1.13;;;;;;;10.01;100.00;101342.41;5247770;28;20063;-81
2021/10/14 01:23:55;;;;;;;2.10;0.98;;;;;;;10.13;100.00;101336.94;5246635;28;20027;-80
2021/10/14 01:26:27;;;;;;;2.03;0.82;;;;;;;10.10;100.00;101333.53;5252176;28;20483;-81
2021/10/14 01:28:57;;;;;;;1.27;0.90;;;;;;;10.03;100.00;101338.03;5251197;28;20093;-80
2021/10/14 01:31:28;;;;;;;2.78;1.00;;;;;;;10.08;100.00;101332.72;5248371;28;20029;-80
2021/10/14 01:33:59;;;;;;;1.25;0.90;;;;;;;10.01;100.00;101323.28;5248815;28;20557;-81
2021/10/14 01:36:29;;;;;;;1.90;0.98;;;;;;;10.03;100.00;101327.56;5253616;28;20251;-81
2021/10/14 01:38:59;;;;;;;3.53;1.10;;;;;;;10.15;100.00;101327.31;5252724;28;20435;-80
2021/10/14 01:41:30;;;;;;;2.60;1.08;;;;;;;10.12;100.00;101323.91;5254006;28;20032;-81
2021/10/14 01:44:00;;;;;;;3.65;1.20;;;;;;;10.13;100.00;101317.81;5255021;28;20025;-81
2021/10/14 01:46:30;;;;;;;1.58;0.88;;;;;;;10.20;100.00;101316.78;5254262;28;20072;-80
2021/10/14 01:49:00;;;;;;;1.80;0.93;;;;;;;10.15;100.00;101308.19;5254281;28;20048;-80
2021/10/14 01:51:31;;;;;;;2.33;1.00;;;;;;;10.21;100.00;101308.06;5256130;28;20025;-80
2021/10/14 01:54:01;;;;;;;1.15;0.77;;;;;;;10.14;100.00;101306.47;5254165;28;20032;-81
2021/10/14 01:56:31;;;;;;;2.67;1.00;;;;;;;10.17;100.00;101301.19;5258100;28;20024;-80
2021/10/14 01:59:02;;;;;;;1.08;0.80;;;;;;;10.22;100.00;101289.75;5255956;28;20061;-79
2021/10/14 02:01:32;;;;;;;1.67;0.90;;;;;;;10.15;100.00;101302.97;5253063;28;20036;-81
2021/10/14 02:04:03;;;;;;;3.70;1.00;;;;;;;10.17;100.00;101298.56;5255699;28;20035;-81
2021/10/14 02:06:33;;;;;;;1.92;0.90;;;;;;;10.15;100.00;101298.59;5254064;28;20029;-80
2021/10/14 02:09:03;;;;;;;1.60;0.80;;;;;;;10.20;100.00;101298.50;5254496;28;20032;-81
2021/10/14 02:11:33;;;;;;;1.35;0.80;;;;;;;10.22;100.00;101294.09;5252074;28;20034;-80
2021/10/14 02:14:04;;;;;;;0.90;0.80;;;;;;;10.31;100.00;101301.75;5251699;28;20033;-81
2021/10/14 02:16:34;;;;;;;1.38;0.95;;;;;;;10.31;100.00;101296.50;5252882;28;20034;-80
2021/10/14 02:19:05;;;;;;;3.28;0.70;;;;;;;10.30;100.00;101297.38;5252951;28;20032;-81
2021/10/14 02:21:35;;;;;;;1.73;0.90;;;;;;;10.29;100.00;101290.44;5252876;28;20372;-81
2021/10/14 02:24:05;;;;;;;1.17;0.77;;;;;;;10.27;100.00;101289.63;5252027;28;20074;-81
2021/10/14 02:26:35;;;;;;;1.45;0.75;;;;;;;10.27;100.00;101300.06;5257537;28;20024;-80
2021/10/14 02:29:12;;;;;;;1.40;0.88;;;;;;;10.30;100.00;101284.31;5252374;28;20434;-80
2021/10/14 02:31:42;;;;;;;2.55;1.00;;;;;;;10.29;100.00;101288.69;5254022;28;20042;-81
2021/10/14 02:34:12;;;;;;;1.88;1.10;;;;;;;10.41;100.00;101291.03;5252958;28;20024;-81
2021/10/14 02:36:43;;;;;;;2.65;1.05;;;;;;;10.32;100.00;101287.78;5256732;28;20040;-81
2021/10/14 02:39:13;;;;;;;2.78;1.10;;;;;;;10.30;100.00;101284.31;5254751;28;20084;-82
2021/10/14 02:41:43;;;;;;;1.48;0.95;;;;;;;10.37;100.00;101284.13;5254195;28;20198;-81
2021/10/14 02:44:14;;;;;;;1.50;1.10;;;;;;;10.34;100.00;101283.38;5250670;28;20084;-81
2021/10/14 02:46:44;;;;;;;1.10;0.90;;;;;;;10.26;100.00;101286.16;5251424;28;20027;-81
2021/10/14 02:49:14;;;;;;;1.75;1.00;;;;;;;10.33;100.00;101281.66;5252122;28;20558;-82
2021/10/14 02:51:45;;;;;;;1.90;1.05;;;;;;;10.31;100.00;101288.69;5248845;28;20029;-80
2021/10/14 02:54:15;;;;;;;1.50;1.10;;;;;;;10.29;100.00;101282.59;5252024;28;20048;-80
2021/10/14 02:56:45;;;;;;;1.42;1.02;;;;;;;10.38;100.00;101279.78;5256728;28;20095;-80
2021/10/14 02:59:16;;;;;;;1.30;1.00;;;;;;;10.46;100.00;101289.16;5252462;28;20027;-79
2021/10/14 03:01:46;;;;;;;2.30;1.17;;;;;;;10.30;100.00;101290.41;5250933;28;20105;-81
2021/10/14 03:04:17;;;;;;;1.75;1.10;;;;;;;10.45;100.00;101286.56;5249331;28;20603;-81
2021/10/14 03:06:47;;;;;;;1.33;1.02;;;;;;;10.29;100.00;101285.22;5255510;28;20030;-81
2021/10/14 03:09:17;;;;;;;2.13;1.17;;;;;;;10.31;100.00;101280.84;5253760;28;20024;-80
2021/10/14 03:11:48;;;;;;;1.80;1.35;;;;;;;10.42;100.00;101284.91;5251250;28;20492;-81
2021/10/14 03:14:18;;;;;;;2.10;1.40;;;;;;;10.34;100.00;101279.00;5252527;28;20050;-79
2021/10/14 03:16:48;;;;;;;1.55;1.25;;;;;;;10.30;100.00;101282.56;5253108;28;20078;-82
2021/10/14 03:19:18;;;;;;;1.83;1.27;;;;;;;10.32;100.00;101279.94;5252058;28;20020;-82
2021/10/14 03:21:49;;;;;;;1.88;1.33;;;;;;;10.41;100.00;101277.09;5251596;28;20020;-81
2021/10/14 03:24:19;;;;;;;1.52;1.20;;;;;;;10.38;100.00;101274.56;5252603;28;20025;-81
2021/10/14 03:26:49;;;;;;;2.90;1.38;;;;;;;10.39;100.00;101281.50;5254087;28;20020;-81
2021/10/14 03:29:20;;;;;;;3.45;1.67;;;;;;;10.32;100.00;101274.72;5252844;28;20051;-80
2021/10/14 03:31:50;;;;;;;2.75;1.58;;;;;;;10.45;100.00;101273.50;5251182;28;20028;-80
2021/10/14 03:34:20;;;;;;;1.98;1.52;;;;;;;10.42;100.00;101266.63;5252015;28;20025;-80
2021/10/14 03:36:50;;;;;;;2.60;1.55;;;;;;;10.48;100.00;101273.47;5253564;28;20027;-81
2021/10/14 03:39:21;;;;;;;2.67;1.92;;;;;;;10.42;100.00;101271.84;5253686;28;20029;-81
2021/10/14 03:41:51;;;;;;;2.83;2.00;;;;;;;10.50;100.00;101280.34;5247601;28;20043;-81
2021/10/14 03:44:22;;;;;;;2.78;1.90;;;;;;;10.37;100.00;101276.28;5248079;28;20032;-80
2021/10/14 03:46:52;;;;;;;2.92;1.80;;;;;;;10.40;100.00;101273.63;5252964;28;20462;-82
2021/10/14 03:49:22;;;;;;;3.45;1.98;;;;;;;10.40;100.00;101275.38;5253697;28;20055;-82
2021/10/14 03:51:52;;;;;;;3.72;2.10;;;;;;;10.46;100.00;101277.84;5251000;28;20028;-80
2021/10/14 03:54:23;;;;;;;3.67;2.00;;;;;;;10.37;100.00;101278.06;5250414;28;20043;-79
2021/10/14 03:56:53;;;;;;;3.10;2.10;;;;;;;10.34;100.00;101284.22;5251069;28;20035;-80
2021/10/14 03:59:23;;;;;;;3.25;2.50;;;;;;;10.46;100.00;101283.06;5249902;28;20023;-80
2021/10/14 04:01:53;;;;;;;4.35;2.60;;;;;;;10.41;100.00;101284.94;5254142;28;20020;-82
2021/10/14 04:04:24;;;;;;;5.25;2.33;;;;;;;10.60;100.00;101273.13;5250898;28;20437;-81
2021/10/14 04:06:54;;;;;;;3.55;2.28;;;;;;;10.53;100.00;101272.44;5252615;28;20027;-81
2021/10/14 04:09:24;;;;;;;3.90;2.75;;;;;;;10.48;100.00;101286.53;5250810;28;20029;-81
2021/10/14 04:11:55;;;;;;;4.43;2.72;;;;;;;10.52;100.00;101278.56;5248220;28;20579;-80
2021/10/14 04:14:25;;;;;;;4.03;2.55;;;;;;;10.60;100.00;101281.84;5247163;28;20029;-80
2021/10/14 04:16:55;;;;;;;3.30;2.55;;;;;;;10.57;100.00;101270.59;5248962;28;20107;-79
2021/10/14 04:19:26;;;;;;;4.32;2.85;;;;;;;10.47;100.00;101269.09;5246333;28;20365;-81
2021/10/14 04:21:57;;;;;;;4.93;2.50;;;;;;;10.64;100.00;101269.53;5246899;28;20044;-80
2021/10/14 04:24:29;;;;;;;4.07;2.83;;;;;;;10.62;100.00;101272.22;5246164;28;20033;-81
2021/10/14 04:26:59;;;;;;;3.72;2.80;;;;;;;10.60;100.00;101275.75;5245000;28;20484;-80
2021/10/14 04:29:30;;;;;;;6.22;3.20;;;;;;;10.57;100.00;101265.38;5249593;28;20024;-81
2021/10/14 04:32:06;;;;;;;4.60;3.10;;;;;;;10.63;100.00;101276.53;5246808;28;20031;-80
2021/10/14 04:34:37;;;;;;;4.18;3.10;;;;;;;10.68;100.00;101273.81;5244667;28;20576;-81
2021/10/14 04:37:07;;;;;;;5.90;3.05;;;;;;;10.68;100.00;101279.91;5248284;28;20044;-80
2021/10/14 04:39:38;;;;;;;5.13;3.30;;;;;;;10.63;100.00;101270.44;5246603;28;20507;-80
2021/10/14 04:42:08;;;;;;;5.68;3.33;;;;;;;10.66;100.00;101276.47;5246106;28;20066;-81
2021/10/14 04:44:41;;;;;;;5.82;3.80;;;;;;;10.68;100.00;101279.91;5245065;28;20476;-80
2021/10/14 04:47:18;;;;;;;4.60;3.22;;;;;;;10.53;100.00;101274.19;5247924;28;20036;-81
2021/10/14 04:49:48;;;;;;;5.43;3.33;;;;;;;10.65;100.00;101271.28;5246066;28;20087;-80
2021/10/14 04:52:19;;;;;;;6.20;3.72;;;;;;;10.64;100.00;101273.03;5251812;28;20028;-81
2021/10/14 04:54:49;;;;;;;5.78;3.60;;;;;;;10.56;100.00;101271.50;5248999;28;20514;-80
2021/10/14 04:57:19;;;;;;;5.05;3.88;;;;;;;10.68;100.00;101273.81;5247471;28;20082;-81
2021/10/14 04:59:50;;;;;;;7.03;4.10;;;;;;;10.62;100.00;101276.56;5256423;28;20028;-82
2021/10/14 05:02:20;;;;;;;5.35;3.78;;;;;;;10.66;100.00;101273.00;5250587;28;20495;-82
2021/10/14 05:04:50;;;;;;;5.72;4.55;;;;;;;10.64;100.00;101272.16;5249185;28;20195;-83
2021/10/14 05:07:21;;;;;;;8.02;4.53;;;;;;;10.70;100.00;101259.81;5253781;28;20078;-81
2021/10/14 05:09:51;;;;;;;7.05;4.53;;;;;;;10.75;100.00;101264.91;5253799;28;20048;-81
2021/10/14 05:12:21;;;;;;;7.40;4.75;;;;;;;10.64;100.00;101266.94;5252188;28;20040;-81
2021/10/14 05:14:52;;;;;;;6.13;4.55;;;;;;;10.68;100.00;101268.59;5252323;28;20032;-81
2021/10/14 05:17:22;;;;;;;7.40;4.95;;;;;;;10.67;100.00;101266.88;5255323;28;20251;-81
2021/10/14 05:19:52;;;;;;;7.35;5.18;;;;;;;10.56;100.00;101269.75;5250909;28;20311;-81
2021/10/14 05:22:23;;;;;;;9.90;5.72;;;;;;;10.65;100.00;101268.69;5249346;28;20024;-81
2021/10/14 05:24:53;;;;;;;8.45;6.40;;;;;;;10.69;100.00;101270.31;5248872;28;20024;-81
2021/10/14 05:27:23;;;;;;;7.80;5.40;;;;;;;10.74;100.00;101266.69;5250055;28;20025;-81
2021/10/14 05:29:54;;;;;;;7.40;5.80;;;;;;;10.83;100.00;101265.59;5249783;28;20067;-81
2021/10/14 05:32:24;;;;;;;8.45;5.47;;;;;;;10.71;100.00;101268.50;5252227;28;20020;-81
2021/10/14 05:34:54;;;;;;;9.57;6.40;;;;;;;10.74;100.00;101273.66;5250954;28;20103;-81
2021/10/14 05:37:29;;;;;;;7.85;6.05;;;;;;;10.67;100.00;101272.09;5250588;28;20025;-82
2021/10/14 05:39:59;;;;;;;8.57;6.65;;;;;;;10.69;100.00;101281.63;5250177;28;20036;-82
2021/10/14 05:42:29;;;;;;;9.68;7.43;;;;;;;10.80;100.00;101270.88;5247548;28;20027;-82
2021/10/14 05:45:00;;;;;;;9.10;6.13;;;;;;;10.75;100.00;101275.38;5245617;28;20020;-82
2021/10/14 05:47:30;;;;;;;10.40;7.43;;;;;;;10.88;100.00;101263.72;5247028;28;20056;-81
2021/10/14 05:50:00;;;;;;;10.48;6.82;;;;;;;10.82;100.00;101276.97;5251880;28;20025;-81
2021/10/14 05:52:30;;;;;;;9.77;7.10;;;;;;;10.81;100.00;101276.09;5252827;28;20388;-82
2021/10/14 05:55:01;;;;;;;11.38;7.50;;;;;;;10.87;100.00;101275.06;5251841;28;20033;-80
2021/10/14 05:57:31;;;;;;;10.52;7.32;;;;;;;10.85;100.00;101277.72;5252305;28;20516;-81
2021/10/14 06:00:03;;;;;;;10.30;7.60;;;;;;;10.80;100.00;101274.38;5253764;28;20367;-82
2021/10/14 06:02:34;;;;;;;10.77;7.50;;;;;;;10.70;100.00;101277.25;5252564;28;20089;-82
2021/10/14 06:05:04;;;;;;;12.55;8.30;;;;;;;10.80;100.00;101284.81;5252760;28;20052;-83
2021/10/14 06:07:34;;;;;;;11.75;8.15;;;;;;;10.86;100.00;101283.81;5259300;28;20017;-82
2021/10/14 06:10:05;;;;;;;14.32;8.40;;;;;;;10.88;100.00;101282.88;5253588;28;20028;-81
2021/10/14 06:12:37;;;;;;;14.25;8.15;;;;;;;10.88;100.00;101282.03;5250797;28;20013;-82
2021/10/14 06:15:08;;;;;;;12.20;8.10;;;;;;;10.93;100.00;101285.38;5254996;28;20024;-82
2021/10/14 06:17:38;;;;;;;13.02;8.02;;;;;;;10.83;100.00;101282.13;5253074;28;20031;-81
2021/10/14 06:20:09;;;;;;;12.95;8.48;;;;;;;10.76;100.00;101288.44;5249156;28;20028;-82
2021/10/14 06:22:40;;;;;;;12.32;8.60;;;;;;;10.83;100.00;101283.91;5250241;28;20024;-82
2021/10/14 06:25:10;;;;;;;12.90;8.35;;;;;;;10.83;100.00;101283.91;5249071;28;20021;-82
2021/10/14 06:27:41;;;;;;;11.55;8.77;;;;;;;10.83;100.00;101289.97;5251215;28;20477;-83
2021/10/14 06:30:11;;;;;;;11.98;8.45;;;;;;;10.85;100.00;101288.19;5250832;28;20560;-82
2021/10/14 06:32:41;;;;;;;11.45;8.43;;;;;;;10.79;100.00;101285.72;5249903;28;20053;-81
2021/10/14 06:35:12;;;;;;;11.80;8.38;;;;;;;10.85;100.00;101282.09;5273359;22;20044;-79
2021/10/14 06:37:42;;;;;;;12.35;8.63;;;;;;;10.75;100.00;101281.47;5244910;28;20036;-80
2021/10/14 06:40:12;;;;;;;13.10;8.10;;;;;;;10.91;100.00;101287.16;5244085;28;20031;-78
2021/10/14 06:42:43;;;;;;;12.10;7.85;;;;;;;10.93;100.00;101286.25;5243885;28;20029;-76
2021/10/14 06:45:13;;;;;;;13.02;8.93;;;;;;;10.94;100.00;101277.50;5245503;28;20055;-76
2021/10/14 06:47:43;;;;;;;12.30;8.25;;;;;;;10.81;100.00;101275.22;5248291;28;20119;-76
2021/10/14 06:50:14;;;;;;;11.52;8.02;;;;;;;10.91;100.00;101277.59;5244522;28;20032;-79
2021/10/14 06:52:44;;;;;;;11.95;8.13;;;;;;;10.98;100.00;101279.13;5239684;28;20198;-76
2021/10/14 06:55:14;;;;;;;11.52;8.00;;;;;;;11.01;100.00;101276.44;5243982;28;20025;-79
2021/10/14 06:57:45;;;;;;;12.23;8.65;;;;;;;10.99;100.00;101274.78;5243957;28;20033;-78
2021/10/14 07:00:19;;;;;;;11.40;7.60;;;;;;;10.92;100.00;101281.03;5243901;28;20115;-77
2021/10/14 07:02:50;;;;;;;11.93;8.18;;;;;;;10.90;100.00;101280.22;5243801;28;20032;-76
2021/10/14 07:05:20;;;;;;;11.63;8.15;;;;;;;10.98;100.00;101273.03;5242916;28;20062;-81
2021/10/14 07:07:50;;;;;;;9.90;7.72;;;;;;;11.02;100.00;101276.41;5248963;28;20043;-78
2021/10/14 07:10:22;;;;;;;10.20;7.68;;;;;;;11.06;100.00;101272.78;5243629;28;20598;-81
2021/10/14 07:12:53;;;;;;;12.98;8.80;;;;;;;11.16;100.00;101284.75;5243664;28;20040;-80
2021/10/14 07:15:23;;;;;;;11.73;8.43;;;;;;;11.13;100.00;101274.34;5245136;28;20020;-83
2021/10/14 07:17:53;;;;;;;11.10;8.18;;;;;;;11.31;100.00;101267.75;5248525;28;20028;-81
2021/10/14 07:20:23;;;;;;;10.02;7.20;;;;;;;11.25;100.00;101284.50;5243804;28;20085;-82
2021/10/14 07:22:54;;;;;;;11.43;7.88;;;;;;;11.19;100.00;101273.31;5243446;28;20082;-78
2021/10/14 07:25:24;;;;;;;11.48;7.82;;;;;;;11.24;100.00;101277.53;5242836;28;20430;-78
2021/10/14 07:27:54;;;;;;;10.75;8.07;;;;;;;11.26;100.00;101277.50;5243372;28;20138;-78
2021/10/14 07:30:25;;;;;;;13.95;9.02;;;;;;;11.23;100.00;101281.06;5243932;28;20112;-78
2021/10/14 07:32:56;;;;;;;10.93;8.48;;;;;;;11.28;100.00;101273.09;5243650;28;20036;-81
2021/10/14 07:35:26;;;;;;;11.85;7.80;;;;;;;11.36;100.00;101277.22;5242794;28;20035;-79
2021/10/14 07:37:57;;;;;;;13.15;8.68;;;;;;;11.29;100.00;101272.19;5247882;28;20036;-79
2021/10/14 07:40:27;;;;;;;12.55;9.27;;;;;;;11.41;100.00;101280.56;5243222;28;20381;-79
2021/10/14 07:42:58;;;;;;;12.00;8.40;;;;;;;11.46;100.00;101269.97;5242837;28;20318;-79
2021/10/14 07:45:28;;;;;;;13.23;8.65;;;;;;;11.37;100.00;101273.69;5244733;28;20028;-82
2021/10/14 07:48:00;;;;;;;11.82;8.43;;;;;;;11.49;100.00;101275.97;5245181;28;20143;-79
2021/10/14 07:50:31;;;;;;;11.02;8.15;;;;;;;11.47;100.00;101276.91;5242755;28;20029;-81
2021/10/14 07:53:01;;;;;;;14.68;8.95;;;;;;;11.53;100.00;101280.22;5242936;28;20052;-79
2021/10/14 07:55:31;;;;;;;11.25;8.23;;;;;;;11.57;100.00;101281.00;5242803;28;20056;-77
2021/10/14 07:58:01;;;;;;;11.27;7.97;;;;;;;11.57;100.00;101276.63;5242605;28;20055;-78
2021/10/14 08:00:31;;;;;;;11.95;8.57;;;;;;;11.61;100.00;101280.03;5242781;28;20071;-80
2021/10/14 08:03:02;;;;;;;11.80;8.13;;;;;;;11.63;100.00;101280.84;5242329;28;20032;-82
2021/10/14 08:05:33;;;;;;;12.32;8.63;;;;;;;11.51;100.00;101287.25;5242210;28;20672;-78
2021/10/14 08:08:04;;;;;;;14.70;9.48;;;;;;;11.60;100.00;101281.78;5246684;28;20124;-79
2021/10/14 08:10:35;;;;;;;13.93;8.88;;;;;;;11.74;100.00;101279.63;5242025;28;20036;-83
2021/10/14 08:13:06;;;;;;;15.88;10.02;;;;;;;11.69;100.00;101276.31;5242295;28;20044;-79
2021/10/14 08:15:36;;;;;;;13.18;9.40;;;;;;;11.77;100.00;101276.91;5244889;28;20107;-76
2021/10/14 08:18:07;;;;;;;13.48;9.30;;;;;;;11.93;100.00;101279.97;5244131;28;20025;-78
2021/10/14 08:20:37;;;;;;;13.05;8.82;;;;;;;11.83;100.00;101276.75;5242073;28;20556;-78
2021/10/14 08:23:08;;;;;;;16.05;9.68;;;;;;;11.88;100.00;101277.47;5242200;28;20111;-82
2021/10/14 08:25:38;;;;;;;12.82;9.15;;;;;;;11.88;100.00;101279.22;5241010;28;20032;-81
2021/10/14 08:28:08;;;;;;;15.70;9.95;;;;;;;11.94;100.00;101272.03;5241776;28;20027;-80
2021/10/14 08:30:39;;;;;;;14.57;9.68;;;;;;;11.96;100.00;101275.47;5242043;28;20024;-81
2021/10/14 08:33:10;;;;;;;15.00;9.10;;;;;;;12.09;100.00;101276.81;5241726;28;20173;-78
2021/10/14 08:35:41;;;;;;;15.85;9.60;;;;;;;12.02;100.00;101285.78;5243071;28;20032;-80
2021/10/14 08:38:13;;;;;;;13.25;8.77;;;;;;;12.02;100.00;101280.53;5245189;28;20039;-81
2021/10/14 08:40:46;;;;;;;12.35;8.40;;;;;;;12.13;100.00;101283.69;5241816;28;20024;-80
2021/10/14 08:43:18;;;;;;;13.05;8.65;;;;;;;12.17;100.00;101285.31;5233601;28;20028;-82
2021/10/14 08:45:50;;;;;;;11.90;8.77;;;;;;;12.28;100.00;101285.00;5244928;28;20453;-80
2021/10/14 08:48:20;;;;;;;11.48;8.18;;;;;;;12.16;100.00;101286.19;5243789;28;20107;-81
2021/10/14 08:50:50;;;;;;;17.17;10.57;;;;;;;12.23;100.00;101281.63;5242080;28;20161;-81
2021/10/14 08:53:20;;;;;;;13.50;8.95;;;;;;;12.31;100.00;101287.50;5241597;28;20511;-78
2021/10/14 08:55:51;;;;;;;14.90;9.25;;;;;;;12.46;100.00;101285.25;5241242;28;20261;-77
2021/10/14 08:58:21;;;;;;;12.13;8.02;;;;;;;12.45;100.00;101287.94;5242039;28;20036;-77
2021/10/14 09:01:07;;;;;;;12.40;7.82;;;;;;;12.47;100.00;101279.09;5241158;28;20107;-80
2021/10/14 09:03:49;;;;;;;12.73;8.48;;;;;;;12.33;100.00;101291.78;5240550;28;20476;-78
2021/10/14 09:06:20;;;;;;;13.10;9.27;;;;;;;12.41;100.00;101288.91;5242769;28;20111;-80
2021/10/14 09:08:52;;;;;;;10.57;6.45;;;;;;;12.41;100.00;101288.91;5246670;28;20555;-78
2021/10/14 09:11:29;;;;;;;8.48;6.57;;;;;;;12.38;100.00;101291.63;5240721;28;20032;-77
2021/10/14 09:14:08;;;;;;;9.85;6.38;;;;;;;12.38;100.00;101284.66;5240800;28;20111;-79
2021/10/14 09:16:40;;;;;;;10.35;5.97;;;;;;;12.44;100.00;101289.69;5240894;28;20059;-80
2021/10/14 09:19:18;;;;;;;9.18;6.43;;;;;;;12.47;100.00;101289.59;5241320;28;20419;-80
2021/10/14 09:21:57;;;;;;;9.52;6.63;;;;;;;12.54;100.00;101285.00;5240952;28;20028;-77
2021/10/14 09:24:35;;;;;;;7.90;5.75;;;;;;;12.51;100.00;101288.59;5239504;28;20431;-76
2021/10/14 09:27:16;;;;;;;8.70;6.03;;;;;;;12.53;100.00;101292.03;5242823;28;20024;-81
2021/10/14 09:29:46;;;;;;;7.18;5.07;;;;;;;12.53;100.00;101294.66;5241034;28;20035;-78
2021/10/14 09:32:20;;;;;;;9.15;5.32;;;;;;;12.56;100.00;101283.19;5240746;28;20029;-79
2021/10/14 09:34:50;;;;;;;7.57;5.05;;;;;;;12.63;100.00;101296.06;5240506;28;20384;-79
2021/10/14 09:37:21;;;;;;;9.07;5.32;;;;;;;12.70;100.00;101286.22;5245033;28;20250;-78
2021/10/14 09:40:09;;;;;;;7.18;5.03;;;;;;;12.74;100.00;101288.69;5242281;28;20060;-77
2021/10/14 09:42:53;;;;;;;7.88;5.00;;;;;;;12.80;100.00;101291.09;5241331;28;20527;-80
2021/10/14 09:45:26;;;;;;;7.80;5.13;;;;;;;12.77;100.00;101298.25;5236825;28;20036;-84
2021/10/14 09:48:03;;;;;;;7.38;4.55;;;;;;;12.68;100.00;101296.78;5237658;28;20036;-77
2021/10/14 09:50:37;;;;;;;7.35;5.05;;;;;;;12.60;100.00;101290.91;5240099;28;20118;-79
2021/10/14 09:53:15;;;;;;;7.25;4.85;;;;;;;12.57;100.00;101295.38;5240747;28;20036;-80
2021/10/14 09:55:48;;;;;;;8.00;5.28;;;;;;;12.66;100.00;101290.69;5243633;28;20368;-76
2021/10/14 09:58:20;;;;;;;7.38;5.18;;;;;;;12.75;100.00;101295.66;5248717;28;20437;-77
2021/10/14 10:00:51;;;;;;;7.38;4.90;;;;;;;12.77;100.00;101291.22;5243963;28;20035;-81
2021/10/14 10:03:24;;;;;;;7.32;4.82;;;;;;;12.79;100.00;101286.78;5244066;28;20024;-84
2021/10/14 10:05:55;;;;;;;7.00;4.72;;;;;;;12.87;100.00;101286.53;5245776;28;20063;-82
2021/10/14 10:08:30;;;;;;;7.43;4.47;;;;;;;13.00;100.00;101286.94;5246827;28;20078;-78
2021/10/14 10:11:06;;;;;;;7.83;4.87;;;;;;;13.11;100.00;101282.22;5247795;28;20093;-80
2021/10/14 10:13:43;;;;;;;6.78;4.20;;;;;;;13.09;100.00;101286.63;5242863;28;20301;-82
2021/10/14 10:16:16;;;;;;;6.15;3.83;;;;;;;13.10;100.00;101283.09;5243979;28;20473;-80
2021/10/14 10:18:52;;;;;;;7.15;4.53;;;;;;;13.22;100.00;101281.84;5240125;28;20040;-79
2021/10/14 10:21:28;;;;;;;6.25;4.07;;;;;;;13.13;100.00;101272.50;5244434;28;20028;-79
2021/10/14 10:23:59;;;;;;;7.05;4.35;;;;;;;13.20;100.00;101278.41;5243348;28;20053;-81
2021/10/14 10:26:35;;;;;;;4.83;3.50;;;;;;;13.14;100.00;101268.97;5226810;28;20059;-80
2021/10/14 10:29:11;;;;;;;6.63;3.60;;;;;;;13.19;100.00;101279.28;5243961;28;20324;-81
2021/10/14 10:31:55;;;;;;;4.50;3.20;;;;;;;13.20;100.00;101273.16;5242376;28;20481;-80
2021/10/14 10:37:45;;;;;;;5.20;3.38;;;;;;;13.06;100.00;101281.47;5248127;28;20501;-77
2021/10/14 10:40:17;;;;;;;4.82;3.17;;;;;;;12.95;100.00;101282.75;5242802;28;20032;-75
2021/10/14 10:42:56;;;;;;;5.28;3.05;;;;;;;13.09;100.00;101281.38;5243408;28;20099;-78
2021/10/14 10:45:30;;;;;;;4.63;3.05;;;;;;;12.97;100.00;101278.31;5222972;28;20032;-79
2021/10/14 10:48:03;;;;;;;5.43;2.90;;;;;;;12.99;100.00;101276.50;5243868;28;20055;-77
2021/10/14 10:50:33;;;;;;;3.97;2.78;;;;;;;12.93;100.00;101274.09;5242182;28;20024;-82
2021/10/14 10:53:11;;;;;;;5.37;2.80;;;;;;;12.90;100.00;101268.91;5243281;28;20512;-79
2021/10/14 10:55:59;;;;;;;4.40;2.80;;;;;;;12.98;100.00;101262.53;5242377;28;20310;-79
2021/10/14 10:58:49;;;;;;;4.85;2.83;;;;;;;12.80;100.00;101259.63;5242123;28;20480;-77
2021/10/14 11:01:19;;;;;;;3.72;2.72;;;;;;;12.74;100.00;101266.84;5242098;28;20039;-82
2021/10/14 11:03:58;;;;;;;4.82;3.00;;;;;;;12.87;100.00;101261.16;5242738;28;20415;-78
2021/10/14 11:06:34;;;;;;;4.00;2.65;;;;;;;12.88;100.00;101260.25;5243275;28;20063;-78
2021/10/14 11:09:05;;;;;;;;;;;;;;;12.99;100.00;101263.38;5246034;28;20030;-78
2021/10/14 11:11:37;;;;;;;3.90;2.53;;;;;;;12.96;100.00;101255.63;5243510;28;20397;-76
2021/10/14 11:14:08;;;;;;;6.40;2.38;;;;;;;13.02;100.00;101252.78;5242587;28;20157;-80
2021/10/14 11:16:38;;;;;;;3.63;2.22;;;;;;;13.10;100.00;101250.75;5243216;28;20109;-78
2021/10/14 11:19:16;;;;;;;8.48;2.58;;;;;;;13.33;100.00;101248.16;5246611;28;20024;-76
2021/10/14 11:21:46;;;;;;;3.92;2.78;;;;;;;13.49;100.00;101244.06;5226390;28;20028;-77
2021/10/14 11:24:17;;;;;;;3.30;2.30;;;;;;;13.54;100.00;101250.03;5242449;28;20017;-77
2021/10/14 11:26:49;;;;;;;3.30;2.47;;;;;;;13.42;100.00;101243.44;5242200;28;20081;-80
2021/10/14 11:29:27;;;;;;;4.03;2.47;;;;;;;13.51;100.00;101248.34;5242854;28;20369;-78
2021/10/14 11:32:05;;;;;;;4.43;2.80;;;;;;;13.46;100.00;101228.44;5242787;28;20056;-81
2021/10/14 11:34:37;;;;;;;4.78;3.25;;;;;;;13.51;100.00;101231.72;5243238;28;20078;-79
2021/10/14 11:37:10;;;;;;;5.65;3.40;;;;;;;13.65;100.00;101230.31;5246114;28;20610;-76